Time;durP1;ratioP1;P1;durP2;ratioP2;P2;SDS_P1;SDS_P2;PMS_P1;PMS_P2;Temp;Humidity;BMP_temperature;BMP_pressure;BME280_temperature;BME280_humidity;BME280_pressure;Samples;Min_cycle;Max_cycle;Signal;HPM_P1;HPM_P2
2021/05/02 00:01:07;;;;;;;1.00;1.00;;;;;;;6.57;62.88;101097.69;5079040;28;20279;-77
2021/05/02 00:03:35;;;;;;;2.47;1.27;;;;;;;6.49;65.69;101087.38;5081433;28;20320;-77
2021/05/02 00:06:04;;;;;;;1999.90;955.57;;;;;;;6.52;64.47;101095.25;5080742;28;20281;-76
2021/05/02 00:08:31;;;;;;;329.47;105.73;;;;;;;6.34;64.75;101073.84;5077477;28;20248;-76
2021/05/02 00:10:58;;;;;;;21.10;10.97;;;;;;;6.55;64.15;101094.22;5095785;28;20205;-76
2021/05/02 00:13:26;;;;;;;8.30;7.50;;;;;;;6.57;64.74;101097.69;5079515;28;20197;-76
2021/05/02 00:15:53;;;;;;;13.33;6.03;;;;;;;6.56;64.00;101095.97;5076136;28;20317;-76
2021/05/02 00:18:24;;;;;;;2.93;2.33;;;;;;;6.43;65.79;101089.47;5079987;28;20225;-76
2021/05/02 00:20:53;;;;;;;7.10;3.10;;;;;;;6.44;64.42;101088.53;5080142;28;20216;-76
2021/05/02 00:23:21;;;;;;;5.70;2.40;;;;;;;6.48;65.00;101088.31;5081281;28;20272;-76
2021/05/02 00:25:49;;;;;;;9.87;6.67;;;;;;;6.53;63.69;101090.78;5082239;28;20632;-77
2021/05/02 00:28:17;;;;;;;5.20;2.20;;;;;;;6.56;62.29;101095.97;5085733;28;20195;-75
2021/05/02 00:30:44;;;;;;;5.13;2.47;;;;;;;6.59;61.37;101094.97;5084484;28;20554;-76
2021/05/02 00:33:13;;;;;;;3.50;2.37;;;;;;;6.62;60.95;101094.81;5083870;28;20284;-76
2021/05/02 00:35:42;;;;;;;3.40;2.30;;;;;;;6.66;60.42;101091.06;5084923;28;20229;-75
2021/05/02 00:38:10;;;;;;;1.30;1.20;;;;;;;6.68;62.62;101094.53;5085219;28;20296;-76
2021/05/02 00:40:40;;;;;;;3.07;1.40;;;;;;;6.60;63.58;101091.34;5084833;28;21580;-76
2021/05/02 00:43:08;;;;;;;7.80;3.03;;;;;;;6.64;62.93;101106.28;5084831;28;20672;-76
2021/05/02 00:45:47;;;;;;;1.30;1.20;;;;;;;6.50;64.31;101102.44;5085013;28;20190;-77
2021/05/02 00:48:17;;;;;;;1.33;1.03;;;;;;;6.37;63.39;101105.72;5083856;28;20680;-75
2021/05/02 00:50:49;;;;;;;1.97;1.10;;;;;;;6.30;62.79;101093.59;5082283;28;20210;-75
2021/05/02 00:53:28;;;;;;;3.57;1.17;;;;;;;6.23;62.85;101096.53;5082000;28;20206;-76
2021/05/02 00:55:57;;;;;;;1.37;1.20;;;;;;;6.15;62.54;101096.03;5076670;28;20228;-76
2021/05/02 00:58:44;;;;;;;1.87;1.10;;;;;;;6.11;61.75;101093.53;5080955;28;20206;-76
2021/05/02 01:01:18;;;;;;;2.60;1.33;;;;;;;6.04;62.01;101092.06;5083697;28;20279;-76
2021/05/02 01:03:47;;;;;;;1.60;1.40;;;;;;;5.82;62.12;101069.00;5081675;28;20204;-76
2021/05/02 01:06:16;;;;;;;1.27;1.17;;;;;;;5.73;62.45;101064.03;5083832;28;20197;-75
2021/05/02 01:08:43;;;;;;;1.13;1.00;;;;;;;5.46;61.97;101019.91;5083797;28;20274;-76
2021/05/02 01:11:14;;;;;;;1.77;1.33;;;;;;;5.82;61.90;101092.97;5082380;28;20198;-76
2021/05/02 01:13:51;;;;;;;2.27;1.03;;;;;;;5.80;62.19;101085.94;5081024;28;20208;-76
2021/05/02 01:16:20;;;;;;;3.37;1.20;;;;;;;5.78;61.26;101091.34;5083999;28;20217;-76
2021/05/02 01:18:48;;;;;;;1.77;1.30;;;;;;;5.77;60.82;101094.94;5085666;28;20608;-75
2021/05/02 01:21:18;;;;;;;1.70;1.30;;;;;;;5.60;60.92;101061.03;5084259;28;20202;-76
2021/05/02 01:23:47;;;;;;;3.50;1.40;;;;;;;5.57;61.83;101066.50;5080961;28;20223;-76
2021/05/02 01:26:17;;;;;;;1.00;0.90;;;;;;;5.45;62.56;101063.47;5083641;28;20796;-76
2021/05/02 01:28:45;;;;;;;1.70;1.20;;;;;;;5.52;62.10;101076.50;5085088;28;20205;-76
2021/05/02 01:31:12;;;;;;;1.10;1.00;;;;;;;5.22;61.69;101044.00;5083342;28;20197;-76
2021/05/02 01:33:40;;;;;;;1.60;1.20;;;;;;;5.42;61.47;101069.78;5082542;28;20202;-75
2021/05/02 01:36:08;;;;;;;3.10;1.00;;;;;;;5.36;61.52;101072.72;5084287;28;21464;-75
2021/05/02 01:38:36;;;;;;;1.40;1.30;;;;;;;5.06;61.38;101018.91;5079711;28;20208;-75
2021/05/02 01:41:04;;;;;;;1.20;1.10;;;;;;;5.31;61.01;101061.38;5082578;28;20205;-76
2021/05/02 01:43:31;;;;;;;0.97;0.80;;;;;;;5.27;60.71;101071.28;5081492;28;20219;-76
2021/05/02 01:45:59;;;;;;;2.53;1.30;;;;;;;5.25;61.03;101066.97;5083961;28;20200;-75
2021/05/02 01:48:29;;;;;;;2.07;1.20;;;;;;;5.20;60.82;101072.47;5081479;28;20224;-75
2021/05/02 01:51:00;;;;;;;1.93;1.10;;;;;;;5.15;60.74;101074.44;5081978;28;20197;-76
2021/05/02 01:53:28;;;;;;;1.20;1.10;;;;;;;5.10;60.62;101065.78;5082365;28;20834;-76
2021/05/02 01:55:56;;;;;;;4.43;1.13;;;;;;;5.05;60.80;101058.91;5081010;28;20232;-76
2021/05/02 01:58:24;;;;;;;1.00;1.00;;;;;;;4.99;60.50;101052.03;5106301;27;20205;-77
2021/05/02 02:00:54;;;;;;;2.83;1.00;;;;;;;4.94;60.66;101056.69;5081452;28;20215;-77
2021/05/02 02:03:22;;;;;;;1.20;1.10;;;;;;;4.87;60.56;101061.34;5076225;28;20685;-76
2021/05/02 02:05:50;;;;;;;1.70;1.03;;;;;;;4.39;60.23;100994.97;5081406;28;20697;-77
2021/05/02 02:08:18;;;;;;;1.50;1.10;;;;;;;4.64;60.59;101037.47;5084858;28;20197;-76
2021/05/02 02:10:46;;;;;;;16.37;9.13;;;;;;;4.65;60.96;101058.69;5079815;28;20200;-76
2021/05/02 02:13:15;;;;;;;2.37;1.63;;;;;;;4.58;60.69;101046.50;5085635;28;20216;-77
2021/05/02 02:15:44;;;;;;;5.70;4.57;;;;;;;4.36;60.33;101013.72;5080368;28;20258;-75
2021/05/02 02:18:13;;;;;;;5.47;3.13;;;;;;;4.48;61.08;101053.13;5074552;28;20196;-75
2021/05/02 02:20:43;;;;;;;2.23;1.60;;;;;;;4.45;61.48;101045.25;5072366;28;20224;-75
2021/05/02 02:23:16;;;;;;;2.70;2.20;;;;;;;4.44;60.88;101051.50;5075044;28;21482;-76
2021/05/02 02:25:45;;;;;;;2.30;1.63;;;;;;;4.41;61.85;101050.75;5114778;27;20204;-75
2021/05/02 02:28:14;;;;;;;1.53;1.20;;;;;;;4.40;61.55;101055.19;5071731;28;20201;-76
2021/05/02 02:30:45;;;;;;;1.97;1.13;;;;;;;4.37;61.30;101050.00;5080609;28;20204;-76
2021/05/02 02:33:14;;;;;;;4.40;1.30;;;;;;;4.35;60.75;101047.41;5088245;28;20190;-76
2021/05/02 02:35:47;;;;;;;1.10;1.10;;;;;;;4.18;61.09;101033.00;5079139;28;20209;-76
2021/05/02 02:38:18;;;;;;;2.97;1.53;;;;;;;4.24;60.63;101051.38;5078397;28;20795;-75
2021/05/02 02:40:48;;;;;;;1.20;1.10;;;;;;;4.19;60.54;101038.25;5074433;28;20514;-75
2021/05/02 02:43:21;;;;;;;5.50;1.30;;;;;;;4.14;61.32;101037.56;5080578;28;20214;-76
2021/05/02 02:45:53;;;;;;;2.70;1.50;;;;;;;4.09;60.60;101036.00;5082052;28;20666;-76
2021/05/02 02:48:25;;;;;;;1.97;1.37;;;;;;;3.94;61.28;101021.44;5080608;28;20193;-76
2021/05/02 02:50:56;;;;;;;3.37;1.40;;;;;;;3.81;60.92;101014.88;5080500;28;21095;-76
2021/05/02 02:53:26;;;;;;;4.20;1.20;;;;;;;3.82;60.50;101020.13;5078638;28;20208;-76
2021/05/02 02:56:01;;;;;;;1.50;1.03;;;;;;;3.94;60.89;101045.38;5075789;28;20675;-77
2021/05/02 02:58:34;;;;;;;1.73;1.10;;;;;;;3.66;61.23;101008.28;5074869;28;20227;-77
2021/05/02 03:01:05;;;;;;;1.10;1.10;;;;;;;3.80;60.97;101037.91;5072453;28;20652;-77
2021/05/02 03:03:33;;;;;;;1.33;1.10;;;;;;;3.87;60.29;101044.72;5084410;28;20557;-77
2021/05/02 03:06:01;;;;;;;2.63;1.23;;;;;;;3.84;60.64;101042.19;5084971;28;20635;-77
2021/05/02 03:08:31;;;;;;;1.80;1.27;;;;;;;3.83;60.67;101045.75;5079340;28;20690;-77
2021/05/02 03:10:58;;;;;;;1.07;0.87;;;;;;;3.85;60.34;101038.59;5076327;28;20296;-77
2021/05/02 03:13:26;;;;;;;1.13;1.00;;;;;;;3.51;61.07;100985.81;5084631;28;20210;-77
2021/05/02 03:15:53;;;;;;;1.90;1.33;;;;;;;3.56;60.80;100990.94;5088355;28;20222;-76
2021/05/02 03:18:24;;;;;;;3.37;1.10;;;;;;;3.70;59.95;101015.25;5085365;28;20207;-77
2021/05/02 03:20:58;;;;;;;1.23;1.13;;;;;;;3.89;59.90;101042.88;5073469;28;20197;-76
2021/05/02 03:23:39;;;;;;;4.50;1.30;;;;;;;3.61;59.74;100989.00;5078746;28;20200;-77
2021/05/02 03:26:08;;;;;;;1.03;0.93;;;;;;;3.93;59.92;101041.84;5075720;28;20632;-76
2021/05/02 03:28:38;;;;;;;4.73;1.53;;;;;;;3.88;61.00;101046.44;5076163;28;20216;-77
2021/05/02 03:31:06;;;;;;;1.43;1.00;;;;;;;3.87;61.11;101047.38;5081089;28;20196;-76
2021/05/02 03:33:37;;;;;;;3.50;1.20;;;;;;;3.90;60.99;101043.75;5085657;28;20249;-76
2021/05/02 03:36:09;;;;;;;1.30;1.10;;;;;;;3.87;61.27;101035.88;5083608;28;20217;-76
2021/05/02 03:38:46;;;;;;;5.37;1.30;;;;;;;3.97;61.52;101027.53;5082602;28;20214;-76
2021/05/02 03:41:14;;;;;;;1.17;1.00;;;;;;;3.92;60.86;101005.56;5076063;28;20279;-76
2021/05/02 03:43:41;;;;;;;3.20;1.17;;;;;;;4.22;61.37;101042.56;5087471;28;20185;-76
2021/05/02 03:46:23;;;;;;;1.67;1.13;;;;;;;4.30;62.66;101057.34;5080626;28;20683;-76
2021/05/02 03:48:56;;;;;;;4.50;1.53;;;;;;;4.39;62.20;101055.25;5080073;28;20770;-76
2021/05/02 03:51:25;;;;;;;1.33;1.10;;;;;;;4.47;60.95;101051.38;5082683;28;20304;-76
2021/05/02 03:53:52;;;;;;;1.30;1.20;;;;;;;4.47;61.99;101058.50;5082053;28;20205;-77
2021/05/02 03:56:30;;;;;;;1.50;1.33;;;;;;;4.47;62.35;101054.03;5087526;28;20322;-76
2021/05/02 03:59:10;;;;;;;2.20;1.20;;;;;;;4.42;63.02;101052.47;5093892;28;20209;-75
2021/05/02 04:01:42;;;;;;;2.70;1.77;;;;;;;4.43;62.27;101047.09;5080416;28;20249;-76
2021/05/02 04:04:14;;;;;;;1.43;1.17;;;;;;;4.45;63.14;101058.56;5091698;28;20242;-76
2021/05/02 04:06:42;;;;;;;2.53;1.50;;;;;;;4.35;64.03;101044.75;5078599;28;20605;-76
2021/05/02 04:09:10;;;;;;;3.83;1.50;;;;;;;4.45;62.86;101053.22;5078298;28;20231;-76
2021/05/02 04:11:38;;;;;;;3.80;1.73;;;;;;;4.38;61.95;101030.47;5086070;28;20189;-75
2021/05/02 04:14:06;;;;;;;3.27;1.30;;;;;;;4.48;62.02;101031.84;5086312;28;20212;-77
2021/05/02 04:16:33;;;;;;;4.83;1.70;;;;;;;4.63;63.10;101055.22;5085829;28;20274;-75
2021/05/02 04:19:01;;;;;;;2.97;1.30;;;;;;;4.68;62.29;101050.56;5089564;28;20204;-76
2021/05/02 04:21:30;;;;;;;2.13;1.07;;;;;;;4.77;61.86;101056.47;5087414;28;20196;-76
2021/05/02 04:23:57;;;;;;;2.50;1.33;;;;;;;4.72;61.54;101034.50;5087001;28;20201;-76
2021/05/02 04:26:25;;;;;;;33.60;15.50;;;;;;;4.91;61.90;101070.97;5082712;28;20229;-77
2021/05/02 04:28:52;;;;;;;2.10;1.17;;;;;;;4.95;62.17;101066.41;5085575;28;20204;-77
2021/05/02 04:31:19;;;;;;;3.27;1.80;;;;;;;4.63;63.79;101015.31;5092447;28;20647;-76
2021/05/02 04:33:47;;;;;;;4.53;1.60;;;;;;;4.68;65.08;101018.66;5086485;28;20578;-76
2021/05/02 04:36:14;;;;;;;4.67;2.70;;;;;;;4.99;65.62;101052.03;5086805;28;20971;-77
2021/05/02 04:38:42;;;;;;;2.20;1.40;;;;;;;5.10;66.18;101060.44;5090930;28;20670;-76
2021/05/02 04:41:09;;;;;;;4.67;1.60;;;;;;;5.22;67.54;101065.28;5088600;28;20224;-76
2021/05/02 04:43:37;;;;;;;2.80;1.63;;;;;;;5.20;68.43;101056.50;5082894;28;20201;-76
2021/05/02 04:46:04;;;;;;;1.67;1.43;;;;;;;5.08;67.65;101009.06;5075893;28;20198;-76
2021/05/02 04:48:31;;;;;;;12.77;5.37;;;;;;;5.36;66.37;101019.44;5082467;28;20666;-76
2021/05/02 04:50:59;;;;;;;4.50;2.23;;;;;;;5.87;64.33;101048.34;5090624;28;20205;-76
2021/05/02 04:53:26;;;;;;;5.67;2.43;;;;;;;6.21;63.22;101057.56;5089226;28;20205;-76
2021/05/02 04:55:54;;;;;;;324.13;224.50;;;;;;;6.57;62.45;101059.47;5085605;28;20190;-76
2021/05/02 04:58:21;;;;;;;38.20;24.43;;;;;;;6.94;61.81;101058.63;5088855;28;20205;-76
2021/05/02 05:00:48;;;;;;;6.63;2.50;;;;;;;7.23;61.76;101058.06;5086058;28;20545;-77
2021/05/02 05:03:16;;;;;;;4.20;2.30;;;;;;;7.54;61.38;101057.41;5084340;28;20203;-76
2021/05/02 05:05:44;;;;;;;2.77;1.60;;;;;;;7.81;64.69;101062.31;5084342;28;20284;-76
2021/05/02 05:08:11;;;;;;;2.07;1.50;;;;;;;8.02;64.94;101063.91;5083849;28;20295;-75
2021/05/02 05:10:38;;;;;;;1.97;1.70;;;;;;;8.16;66.18;101065.84;5084390;28;20198;-76
2021/05/02 05:13:07;;;;;;;3.03;1.60;;;;;;;8.16;67.73;101063.16;5077667;28;20215;-75
2021/05/02 05:15:34;;;;;;;2.17;1.70;;;;;;;8.24;68.83;101071.63;5080952;28;20609;-76
2021/05/02 05:18:01;;;;;;;3.60;1.90;;;;;;;8.31;68.76;101057.00;5077092;28;20226;-76
2021/05/02 05:20:28;;;;;;;2.60;1.97;;;;;;;8.34;69.29;101044.38;5077583;28;20209;-76
2021/05/02 05:22:56;;;;;;;2.53;1.67;;;;;;;8.59;69.26;101048.41;5087313;28;20204;-76
2021/05/02 05:25:23;;;;;;;2.70;1.83;;;;;;;8.89;69.42;101075.28;5083415;28;20558;-75
2021/05/02 05:27:50;;;;;;;3.50;1.83;;;;;;;8.85;69.02;101069.22;5084264;28;20214;-76
2021/05/02 05:30:19;;;;;;;2.13;1.67;;;;;;;8.93;68.88;101072.34;5089689;28;20658;-76
2021/05/02 05:32:46;;;;;;;2.67;2.07;;;;;;;8.98;69.14;101078.31;5074777;28;20550;-76
2021/05/02 05:35:13;;;;;;;3.87;2.10;;;;;;;8.91;69.61;101052.84;5080201;28;20208;-76
2021/05/02 05:37:40;;;;;;;2.97;1.70;;;;;;;9.19;69.07;101078.94;5112259;27;20238;-76
2021/05/02 05:40:09;;;;;;;3.67;2.27;;;;;;;9.39;67.96;101068.88;5079549;28;20204;-74
2021/05/02 05:42:36;;;;;;;3.70;2.27;;;;;;;9.70;66.58;101079.53;5085407;28;20230;-75
2021/05/02 05:45:03;;;;;;;3.50;2.10;;;;;;;9.96;66.48;101067.28;5085424;28;20217;-75
2021/05/02 05:47:32;;;;;;;3.97;1.80;;;;;;;9.88;65.49;101040.06;5087361;28;20197;-75
2021/05/02 05:49:59;;;;;;;3.80;2.30;;;;;;;10.30;64.77;101084.03;5083719;28;20219;-75
2021/05/02 05:52:26;;;;;;;2.50;1.83;;;;;;;10.56;64.60;101083.31;5082573;28;20208;-75
2021/05/02 05:54:53;;;;;;;6.33;2.33;;;;;;;10.96;62.83;101084.34;5081077;28;20566;-75
2021/05/02 05:57:20;;;;;;;2.70;1.83;;;;;;;11.23;61.15;101070.06;5070352;28;20213;-75
2021/05/02 05:59:47;;;;;;;4.97;2.27;;;;;;;11.52;60.62;101067.19;5083437;28;20277;-74
2021/05/02 06:02:14;;;;;;;5.57;2.10;;;;;;;11.44;60.64;101061.47;5085485;28;20564;-74
2021/05/02 06:04:43;;;;;;;3.80;2.03;;;;;;;11.35;62.28;101037.88;5086374;28;20291;-75
2021/05/02 06:07:10;;;;;;;6.60;2.13;;;;;;;11.54;62.46;101064.41;5080179;28;20209;-74
2021/05/02 06:09:38;;;;;;;4.73;2.10;;;;;;;11.73;61.14;101069.44;5084831;28;20235;-74
2021/05/02 06:12:06;;;;;;;3.93;1.80;;;;;;;11.80;61.49;101068.06;5078766;28;20201;-74
2021/05/02 06:14:33;;;;;;;2.67;1.77;;;;;;;11.77;61.52;101065.56;5078009;28;20542;-75
2021/05/02 06:17:01;;;;;;;3.77;2.07;;;;;;;11.99;60.79;101070.38;5078843;28;20234;-75
2021/05/02 06:19:28;;;;;;;8.87;2.77;;;;;;;12.05;60.23;101068.13;5076588;28;20214;-74
2021/05/02 06:21:56;;;;;;;3.37;1.70;;;;;;;12.42;59.51;101070.94;5080137;28;20660;-74
2021/05/02 06:24:23;;;;;;;2.23;2.00;;;;;;;12.64;58.50;101073.88;5077832;28;20197;-75
2021/05/02 06:26:50;;;;;;;2.97;1.80;;;;;;;12.82;58.01;101068.09;5079226;28;20287;-74
2021/05/02 06:29:18;;;;;;;6.30;1.70;;;;;;;12.75;56.35;101049.69;5083386;28;20208;-74
2021/05/02 06:31:45;;;;;;;2.17;1.70;;;;;;;13.05;56.88;101067.31;5078889;28;20201;-75
2021/05/02 06:34:13;;;;;;;4.63;1.87;;;;;;;12.84;56.15;101074.25;5082906;28;20283;-73
2021/05/02 06:36:41;;;;;;;2.47;1.73;;;;;;;13.19;55.06;101072.63;5074641;28;20220;-74
2021/05/02 06:39:09;;;;;;;3.43;1.30;;;;;;;13.32;53.18;101067.16;5078753;28;20199;-74
2021/05/02 06:41:39;;;;;;;1.73;1.40;;;;;;;13.78;54.00;101061.88;5076085;28;20617;-74
2021/05/02 06:44:06;;;;;;;5.47;1.90;;;;;;;14.02;53.27;101025.84;5079287;28;20207;-75
2021/05/02 06:46:34;;;;;;;1.70;1.57;;;;;;;14.39;53.14;101067.06;5078003;28;20533;-74
2021/05/02 06:49:03;;;;;;;1.97;1.47;;;;;;;14.70;51.93;101070.97;5074608;28;20207;-75
2021/05/02 06:51:31;;;;;;;3.70;1.53;;;;;;;14.98;49.94;101067.72;5081367;28;20204;-75
2021/05/02 06:53:59;;;;;;;1.50;1.30;;;;;;;15.30;49.71;101075.91;5079178;28;20193;-74
2021/05/02 06:56:27;;;;;;;3.10;1.60;;;;;;;15.33;50.36;101059.47;5082717;28;20222;-74
2021/05/02 06:58:55;;;;;;;2.10;1.57;;;;;;;15.78;49.13;101060.19;5075514;28;20648;-73
2021/05/02 07:01:23;;;;;;;1.77;1.57;;;;;;;15.82;49.63;101061.66;5074399;28;20814;-74
2021/05/02 07:03:50;;;;;;;2.83;1.60;;;;;;;16.13;48.10;101067.16;5077460;28;20212;-74
2021/05/02 07:06:31;;;;;;;3.53;1.63;;;;;;;16.29;48.50;101070.28;5078744;28;20219;-75
2021/05/02 07:08:58;;;;;;;1.37;1.23;;;;;;;16.73;45.65;101065.56;5079582;28;20699;-75
2021/05/02 07:11:27;;;;;;;2.70;1.60;;;;;;;17.04;46.11;101066.38;5080784;28;20207;-75
2021/05/02 07:13:54;;;;;;;2.57;1.53;;;;;;;17.33;44.61;101055.63;5079772;28;20722;-74
2021/05/02 07:16:22;;;;;;;1.73;1.53;;;;;;;17.72;44.43;101064.69;5077290;28;20207;-73
2021/05/02 07:18:51;;;;;;;1.70;1.50;;;;;;;17.73;44.40;101062.84;5078515;28;20674;-73
2021/05/02 07:21:20;;;;;;;1.90;1.50;;;;;;;17.47;43.71;101065.22;5083509;28;20731;-74
2021/05/02 07:23:50;;;;;;;2.03;1.70;;;;;;;16.96;43.99;101067.09;5076157;28;20437;-73
2021/05/02 07:26:18;;;;;;;2.50;1.70;;;;;;;17.13;44.26;101057.41;5079188;28;20200;-73
2021/05/02 07:28:46;;;;;;;2.30;1.33;;;;;;;16.68;43.78;101059.69;5075053;28;20243;-74
2021/05/02 07:31:13;;;;;;;1.80;1.40;;;;;;;16.32;44.06;101064.59;5080830;28;20196;-74
2021/05/02 07:33:41;;;;;;;1.43;1.33;;;;;;;16.23;44.60;101057.25;5079802;28;20208;-74
2021/05/02 07:36:09;;;;;;;1.40;1.30;;;;;;;15.70;43.51;101042.88;5076087;28;20197;-74
2021/05/02 07:38:37;;;;;;;1.83;1.53;;;;;;;15.58;46.09;101061.00;5083429;28;20201;-73
2021/05/02 07:41:05;;;;;;;2.00;1.47;;;;;;;15.52;46.16;101061.47;5082280;28;20192;-74
2021/05/02 07:43:33;;;;;;;1.37;1.27;;;;;;;15.35;46.07;101008.78;5078973;28;20200;-75
2021/05/02 07:46:03;;;;;;;1.60;1.50;;;;;;;15.72;45.87;101049.03;5085262;28;20210;-74
2021/05/02 07:48:30;;;;;;;1.30;1.20;;;;;;;15.81;44.72;101040.13;5078692;28;20208;-74
2021/05/02 07:50:58;;;;;;;4.13;1.40;;;;;;;15.61;46.67;101044.53;5078601;28;20254;-74
2021/05/02 07:53:25;;;;;;;1.30;1.20;;;;;;;15.95;46.61;101039.81;5076570;28;20300;-74
2021/05/02 07:55:52;;;;;;;1.83;1.50;;;;;;;16.26;44.52;101054.28;5084403;28;20200;-74
2021/05/02 07:58:19;;;;;;;2.53;1.50;;;;;;;16.23;45.99;101051.84;5106641;27;21626;-74
2021/05/02 08:00:47;;;;;;;1.47;1.37;;;;;;;16.73;45.28;101047.41;5083627;28;20287;-75
2021/05/02 08:03:15;;;;;;;8.13;1.60;;;;;;;16.75;43.49;101034.59;5080649;28;20196;-73
2021/05/02 08:05:43;;;;;;;2.20;1.43;;;;;;;17.49;44.13;101050.50;5079909;28;20687;-74
2021/05/02 08:08:11;;;;;;;1.43;1.20;;;;;;;18.22;41.88;101049.09;5080152;28;20196;-74
2021/05/02 08:10:38;;;;;;;1.70;1.17;;;;;;;18.85;39.39;101046.63;5076481;28;20566;-74
2021/05/02 08:13:05;;;;;;;2.17;1.33;;;;;;;19.35;38.27;101040.78;5073036;28;20650;-75
2021/05/02 08:15:32;;;;;;;1.50;1.40;;;;;;;19.73;37.93;101041.53;5086115;28;20223;-74
2021/05/02 08:18:01;;;;;;;1.50;1.40;;;;;;;20.16;38.20;101044.28;5084485;28;20217;-73
2021/05/02 08:20:29;;;;;;;1.40;1.30;;;;;;;20.47;36.67;101038.41;5107048;27;20254;-74
2021/05/02 08:22:56;;;;;;;4.17;1.30;;;;;;;20.97;35.31;101045.84;5073751;28;20283;-75
2021/05/02 08:25:24;;;;;;;2.40;1.10;;;;;;;21.25;34.03;101041.03;5076442;28;20195;-75
2021/05/02 08:27:51;;;;;;;1.30;1.20;;;;;;;21.53;33.59;101031.53;5075227;28;20285;-74
2021/05/02 08:30:19;;;;;;;1.83;1.20;;;;;;;21.30;33.22;100995.78;5073436;28;20208;-75
2021/05/02 08:32:48;;;;;;;1.87;1.33;;;;;;;21.18;34.81;101009.91;5073811;28;20189;-74
2021/05/02 08:35:15;;;;;;;1.33;1.10;;;;;;;21.87;32.91;101047.81;5077279;28;20407;-74
2021/05/02 08:37:43;;;;;;;2.10;1.23;;;;;;;22.12;33.21;101047.88;5075133;28;20246;-74
2021/05/02 08:40:14;;;;;;;3.10;1.50;;;;;;;22.28;33.62;101037.75;5071842;28;20208;-74
2021/05/02 08:42:41;;;;;;;1.40;1.30;;;;;;;22.55;31.58;101049.34;5075222;28;20627;-73
2021/05/02 08:45:09;;;;;;;1.53;1.30;;;;;;;21.61;32.79;101038.91;5071630;28;20209;-74
2021/05/02 08:47:37;;;;;;;1.37;1.27;;;;;;;20.48;32.90;101021.00;5072971;28;20266;-74
2021/05/02 08:50:06;;;;;;;1.50;1.20;;;;;;;19.17;34.42;101053.50;5077133;28;20324;-74
2021/05/02 08:52:34;;;;;;;1.03;1.03;;;;;;;18.27;36.06;101046.78;5077106;28;20275;-74
2021/05/02 08:55:04;;;;;;;1.40;1.20;;;;;;;18.25;37.45;101027.03;5079363;28;20286;-74
2021/05/02 08:57:31;;;;;;;4.20;1.10;;;;;;;17.82;39.55;101037.53;5077987;28;20232;-74
2021/05/02 08:59:58;;;;;;;1.30;1.20;;;;;;;17.63;41.14;101047.38;5085720;28;20209;-74
2021/05/02 09:02:27;;;;;;;3.90;1.30;;;;;;;17.04;42.49;101040.09;5097502;27;20223;-74
2021/05/02 09:05:02;;;;;;;1.40;1.30;;;;;;;16.29;45.04;101043.19;5075818;28;20204;-74
2021/05/02 09:07:39;;;;;;;1.50;1.40;;;;;;;16.38;47.02;101039.66;5077146;28;20702;-75
2021/05/02 09:10:09;;;;;;;1.87;1.17;;;;;;;16.09;45.55;101030.47;5075946;28;20243;-74
2021/05/02 09:12:37;;;;;;;1.17;1.17;;;;;;;16.29;44.70;101021.50;5079949;28;20205;-75
2021/05/02 09:15:08;;;;;;;1.77;1.27;;;;;;;15.74;43.70;101031.66;5079242;28;20205;-75
2021/05/02 09:17:49;;;;;;;2.77;1.20;;;;;;;15.52;42.97;101032.56;5077882;28;20262;-74
2021/05/02 09:20:40;;;;;;;1.37;1.10;;;;;;;16.05;43.31;101040.72;5075013;28;20200;-75
2021/05/02 09:23:08;;;;;;;2.20;1.40;;;;;;;16.10;43.43;101033.06;5083162;28;20680;-74
2021/05/02 09:25:50;;;;;;;1.33;1.23;;;;;;;16.07;42.43;101010.78;5088153;28;20204;-75
2021/05/02 09:28:18;;;;;;;0.90;0.90;;;;;;;16.24;40.74;101009.34;5085564;28;20287;-75
2021/05/02 09:30:45;;;;;;;1.23;1.00;;;;;;;16.42;39.98;101018.56;5074810;28;20199;-74
2021/05/02 09:33:26;;;;;;;1.30;1.20;;;;;;;16.19;39.72;101020.56;5077886;28;20193;-74
2021/05/02 09:35:53;;;;;;;1.73;1.13;;;;;;;16.05;40.98;101010.94;5080527;28;20209;-75
2021/05/02 09:38:20;;;;;;;0.80;0.80;;;;;;;15.80;41.67;101006.75;5083574;28;20212;-75
2021/05/02 09:40:50;;;;;;;1.30;1.20;;;;;;;15.48;41.79;100974.25;5079943;28;20217;-75
2021/05/02 09:43:33;;;;;;;1.13;1.03;;;;;;;15.99;42.49;101003.34;5080256;28;20212;-75
2021/05/02 09:46:23;;;;;;;2.03;1.40;;;;;;;15.47;42.89;101009.59;5084612;28;20834;-75
2021/05/02 09:48:59;;;;;;;1.70;1.30;;;;;;;15.16;42.45;101008.56;5089001;28;20224;-75
2021/05/02 09:51:27;;;;;;;2.03;0.90;;;;;;;14.68;41.83;101017.00;5081987;28;20204;-75
2021/05/02 09:54:06;;;;;;;0.90;0.90;;;;;;;14.68;41.71;101013.41;5084314;28;20243;-75
2021/05/02 09:56:37;;;;;;;1.20;1.10;;;;;;;14.42;42.13;100959.63;5077007;28;20207;-74
2021/05/02 09:59:05;;;;;;;2.10;0.90;;;;;;;14.97;40.90;101002.94;5086781;28;20192;-74
2021/05/02 10:01:34;;;;;;;0.80;0.80;;;;;;;14.47;42.59;101010.63;5089840;28;20204;-75
2021/05/02 10:04:01;;;;;;;1.17;1.17;;;;;;;13.89;44.11;101021.41;5085250;28;20245;-74
2021/05/02 10:06:30;;;;;;;0.80;0.80;;;;;;;13.39;44.82;101011.78;5084476;28;20200;-74
2021/05/02 10:09:00;;;;;;;1.63;0.87;;;;;;;13.15;44.22;101003.63;5083059;28;20282;-75
2021/05/02 10:11:27;;;;;;;0.90;0.90;;;;;;;13.00;44.25;101019.13;5085599;28;20205;-74
2021/05/02 10:13:56;;;;;;;2.20;1.10;;;;;;;12.97;44.53;101011.25;5085743;28;20277;-74
2021/05/02 10:16:24;;;;;;;1.17;1.00;;;;;;;12.80;45.35;100991.91;5080272;28;20262;-73
2021/05/02 10:18:51;;;;;;;0.83;0.83;;;;;;;13.01;45.28;101012.75;5086960;28;20767;-75
2021/05/02 10:21:19;;;;;;;1.03;1.00;;;;;;;12.93;46.01;101012.47;5086686;28;20209;-75
2021/05/02 10:23:46;;;;;;;1.03;1.03;;;;;;;12.53;48.37;101019.88;5082993;28;20531;-75
2021/05/02 10:26:14;;;;;;;1.30;1.20;;;;;;;12.32;50.63;101021.41;5090327;28;20204;-74
2021/05/02 10:28:42;;;;;;;2.50;1.20;;;;;;;12.26;51.78;101013.78;5079656;28;20690;-75
2021/05/02 10:31:10;;;;;;;1.30;1.20;;;;;;;12.33;52.20;101021.28;5084327;28;20212;-74
2021/05/02 10:33:41;;;;;;;4.43;1.40;;;;;;;12.56;53.84;101022.38;5081393;28;20666;-75
2021/05/02 10:36:09;;;;;;;4.67;1.57;;;;;;;12.68;52.90;101028.69;5082814;28;20219;-74
2021/05/02 10:38:53;;;;;;;1.47;1.33;;;;;;;12.63;54.04;101018.25;5074802;28;20661;-75
2021/05/02 10:41:22;;;;;;;2.10;1.60;;;;;;;12.75;53.27;101020.03;5074864;28;20382;-75
2021/05/02 10:43:50;;;;;;;1.60;1.50;;;;;;;12.77;52.95;101017.25;5077458;28;20211;-74
2021/05/02 10:46:46;;;;;;;2.00;1.60;;;;;;;12.50;53.28;101019.22;5070500;28;20211;-75
2021/05/02 10:49:46;;;;;;;2.77;1.50;;;;;;;12.79;53.02;101017.13;5081668;28;20241;-75
2021/05/02 10:52:35;;;;;;;3.30;1.53;;;;;;;12.92;51.17;101012.59;5079884;28;20202;-75
2021/05/02 10:55:12;;;;;;;3.53;1.40;;;;;;;12.77;51.75;101011.00;5080673;28;20816;-75
2021/05/02 10:57:39;;;;;;;1.43;1.33;;;;;;;12.34;52.14;100992.53;5080217;28;20234;-75
2021/05/02 11:00:08;;;;;;;1.60;1.50;;;;;;;12.78;51.88;101012.72;5075426;28;20198;-74
2021/05/02 11:02:41;;;;;;;2.33;1.70;;;;;;;12.40;52.34;101027.09;5082741;28;20211;-74
2021/05/02 11:05:10;;;;;;;2.70;1.53;;;;;;;12.04;53.00;101047.56;5075805;28;20656;-77
2021/05/02 11:07:39;;;;;;;4.53;1.90;;;;;;;11.86;53.95;101032.66;5085494;28;20192;-75
2021/05/02 11:10:09;;;;;;;1.90;1.47;;;;;;;11.77;54.31;101030.59;5076097;28;20220;-75
2021/05/02 11:12:37;;;;;;;2.03;1.30;;;;;;;11.89;54.14;101021.69;5085200;28;20698;-74
2021/05/02 11:15:39;;;;;;;1.43;1.30;;;;;;;12.17;52.55;101046.69;5078911;28;20707;-74
2021/05/02 11:18:22;;;;;;;5.10;1.70;;;;;;;12.15;52.14;101033.34;5077954;28;20225;-74
2021/05/02 11:20:51;;;;;;;2.40;1.40;;;;;;;12.18;53.07;101032.28;5081549;28;20287;-75
2021/05/02 11:23:20;;;;;;;1.97;1.23;;;;;;;12.27;52.82;101031.66;5076464;28;20725;-75
2021/05/02 11:25:53;;;;;;;1.50;1.23;;;;;;;12.55;51.89;101030.53;5087475;28;20198;-75
2021/05/02 11:28:34;;;;;;;2.03;1.47;;;;;;;13.10;51.83;101011.22;5075010;28;20196;-75
2021/05/02 11:31:02;;;;;;;2.07;1.40;;;;;;;13.22;49.06;101021.13;5072306;28;20206;-75
2021/05/02 11:33:30;;;;;;;2.07;1.30;;;;;;;13.25;47.98;101007.41;5073579;28;20208;-74
2021/05/02 11:35:58;;;;;;;1.33;1.23;;;;;;;13.45;47.71;101005.03;5071724;28;20192;-75
2021/05/02 11:38:38;;;;;;;1.17;1.13;;;;;;;13.52;47.53;101001.78;5087417;28;20227;-74
2021/05/02 11:41:10;;;;;;;3.27;1.20;;;;;;;13.48;47.11;101008.41;5082040;28;20689;-74